sensor_id;sensor_type;location;lat;lon;timestamp;P1;durP1;ratioP1;P2;durP2;ratioP2
11098;SDS011;12223;42.650;23.364;2022-08-21T00:02:03;107.43;;;101.75;;
11098;SDS011;12223;42.650;23.364;2022-08-21T00:04:31;90.25;;;85.20;;
11098;SDS011;12223;42.650;23.364;2022-08-21T00:06:57;114.65;;;108.28;;
11098;SDS011;12223;42.650;23.364;2022-08-21T00:09:24;80.18;;;75.25;;
11098;SDS011;12223;42.650;23.364;2022-08-21T00:11:51;69.25;;;65.18;;
11098;SDS011;12223;42.650;23.364;2022-08-21T00:14:18;83.15;;;78.50;;
11098;SDS011;12223;42.650;23.364;2022-08-21T00:16:46;83.78;;;78.93;;
11098;SDS011;12223;42.650;23.364;2022-08-21T00:19:13;67.28;;;62.95;;
11098;SDS011;12223;42.650;23.364;2022-08-21T00:21:40;47.25;;;44.10;;
11098;SDS011;12223;42.650;23.364;2022-08-21T00:24:07;43.72;;;40.60;;
11098;SDS011;12223;42.650;23.364;2022-08-21T00:26:34;36.30;;;33.55;;
11098;SDS011;12223;42.650;23.364;2022-08-21T00:29:00;51.58;;;48.13;;
11098;SDS011;12223;42.650;23.364;2022-08-21T00:31:27;39.50;;;36.70;;
11098;SDS011;12223;42.650;23.364;2022-08-21T00:33:55;61.67;;;57.92;;
11098;SDS011;12223;42.650;23.364;2022-08-21T00:36:22;67.05;;;63.22;;
11098;SDS011;12223;42.650;23.364;2022-08-21T00:38:49;140.48;;;133.50;;
11098;SDS011;12223;42.650;23.364;2022-08-21T00:41:15;50.00;;;46.80;;
11098;SDS011;12223;42.650;23.364;2022-08-21T00:43:42;66.55;;;62.65;;
11098;SDS011;12223;42.650;23.364;2022-08-21T00:46:10;66.25;;;62.13;;
11098;SDS011;12223;42.650;23.364;2022-08-21T00:48:36;64.40;;;60.58;;
11098;SDS011;12223;42.650;23.364;2022-08-21T00:51:06;88.43;;;83.75;;
11098;SDS011;12223;42.650;23.364;2022-08-21T00:53:35;59.75;;;56.13;;
11098;SDS011;12223;42.650;23.364;2022-08-21T00:56:04;56.20;;;52.38;;
11098;SDS011;12223;42.650;23.364;2022-08-21T00:58:33;61.92;;;58.08;;
11098;SDS011;12223;42.650;23.364;2022-08-21T01:01:02;87.03;;;82.07;;
11098;SDS011;12223;42.650;23.364;2022-08-21T01:03:31;115.55;;;109.25;;
11098;SDS011;12223;42.650;23.364;2022-08-21T01:05:58;120.18;;;113.45;;
11098;SDS011;12223;42.650;23.364;2022-08-21T01:08:27;80.00;;;75.07;;
11098;SDS011;12223;42.650;23.364;2022-08-21T01:10:55;80.07;;;75.22;;
11098;SDS011;12223;42.650;23.364;2022-08-21T01:13:23;71.15;;;67.03;;
11098;SDS011;12223;42.650;23.364;2022-08-21T01:15:50;68.07;;;63.60;;
11098;SDS011;12223;42.650;23.364;2022-08-21T01:18:20;84.80;;;79.63;;
11098;SDS011;12223;42.650;23.364;2022-08-21T01:20:59;101.50;;;95.95;;
11098;SDS011;12223;42.650;23.364;2022-08-21T01:23:27;110.55;;;104.75;;
11098;SDS011;12223;42.650;23.364;2022-08-21T01:25:54;100.85;;;95.05;;
11098;SDS011;12223;42.650;23.364;2022-08-21T01:28:22;66.80;;;62.03;;
11098;SDS011;12223;42.650;23.364;2022-08-21T01:30:50;66.32;;;62.03;;
11098;SDS011;12223;42.650;23.364;2022-08-21T01:33:20;61.42;;;56.97;;
11098;SDS011;12223;42.650;23.364;2022-08-21T01:35:48;62.33;;;58.08;;
11098;SDS011;12223;42.650;23.364;2022-08-21T01:38:16;61.05;;;56.50;;
11098;SDS011;12223;42.650;23.364;2022-08-21T01:40:43;59.58;;;55.15;;
11098;SDS011;12223;42.650;23.364;2022-08-21T01:43:10;56.53;;;52.45;;
11098;SDS011;12223;42.650;23.364;2022-08-21T01:45:36;49.28;;;45.97;;
11098;SDS011;12223;42.650;23.364;2022-08-21T01:48:03;57.15;;;53.42;;
11098;SDS011;12223;42.650;23.364;2022-08-21T01:50:31;82.57;;;77.72;;
11098;SDS011;12223;42.650;23.364;2022-08-21T01:52:58;97.65;;;92.40;;
11098;SDS011;12223;42.650;23.364;2022-08-21T01:55:26;89.85;;;84.70;;
11098;SDS011;12223;42.650;23.364;2022-08-21T01:57:52;90.95;;;85.47;;
11098;SDS011;12223;42.650;23.364;2022-08-21T02:00:20;127.55;;;120.10;;
11098;SDS011;12223;42.650;23.364;2022-08-21T02:02:49;106.20;;;99.82;;
11098;SDS011;12223;42.650;23.364;2022-08-21T02:05:16;70.35;;;66.15;;
11098;SDS011;12223;42.650;23.364;2022-08-21T02:07:44;55.45;;;51.63;;
11098;SDS011;12223;42.650;23.364;2022-08-21T02:10:14;53.38;;;49.85;;
11098;SDS011;12223;42.650;23.364;2022-08-21T02:12:47;51.92;;;48.22;;
11098;SDS011;12223;42.650;23.364;2022-08-21T02:15:14;50.10;;;45.97;;
11098;SDS011;12223;42.650;23.364;2022-08-21T02:17:42;46.30;;;42.75;;
11098;SDS011;12223;42.650;23.364;2022-08-21T02:20:12;52.20;;;48.63;;
11098;SDS011;12223;42.650;23.364;2022-08-21T02:22:43;53.17;;;49.47;;
11098;SDS011;12223;42.650;23.364;2022-08-21T02:25:10;101.07;;;95.20;;
11098;SDS011;12223;42.650;23.364;2022-08-21T02:27:37;89.13;;;83.85;;
11098;SDS011;12223;42.650;23.364;2022-08-21T02:30:07;55.13;;;51.33;;
11098;SDS011;12223;42.650;23.364;2022-08-21T02:32:36;82.15;;;77.25;;
11098;SDS011;12223;42.650;23.364;2022-08-21T02:35:03;88.88;;;83.82;;
11098;SDS011;12223;42.650;23.364;2022-08-21T02:37:31;115.22;;;108.93;;
11098;SDS011;12223;42.650;23.364;2022-08-21T02:39:58;84.55;;;79.45;;
11098;SDS011;12223;42.650;23.364;2022-08-21T02:42:25;65.95;;;61.63;;
11098;SDS011;12223;42.650;23.364;2022-08-21T02:44:52;70.38;;;66.18;;
11098;SDS011;12223;42.650;23.364;2022-08-21T02:47:20;70.82;;;66.38;;
11098;SDS011;12223;42.650;23.364;2022-08-21T02:49:47;60.03;;;56.30;;
11098;SDS011;12223;42.650;23.364;2022-08-21T02:52:13;87.68;;;82.53;;
11098;SDS011;12223;42.650;23.364;2022-08-21T02:54:40;83.53;;;78.78;;
11098;SDS011;12223;42.650;23.364;2022-08-21T02:57:07;77.88;;;73.55;;
11098;SDS011;12223;42.650;23.364;2022-08-21T02:59:34;119.40;;;113.13;;
11098;SDS011;12223;42.650;23.364;2022-08-21T03:02:01;184.38;;;175.77;;
11098;SDS011;12223;42.650;23.364;2022-08-21T03:04:29;170.60;;;162.27;;
11098;SDS011;12223;42.650;23.364;2022-08-21T03:06:57;104.57;;;99.40;;
11098;SDS011;12223;42.650;23.364;2022-08-21T03:09:24;101.25;;;96.30;;
11098;SDS011;12223;42.650;23.364;2022-08-21T03:11:50;152.20;;;145.35;;
11098;SDS011;12223;42.650;23.364;2022-08-21T03:14:18;122.00;;;116.43;;
11098;SDS011;12223;42.650;23.364;2022-08-21T03:16:45;98.82;;;94.13;;
11098;SDS011;12223;42.650;23.364;2022-08-21T03:19:12;121.45;;;115.95;;
11098;SDS011;12223;42.650;23.364;2022-08-21T03:21:40;84.43;;;80.35;;
11098;SDS011;12223;42.650;23.364;2022-08-21T03:24:07;121.07;;;115.13;;
11098;SDS011;12223;42.650;23.364;2022-08-21T03:26:34;112.00;;;106.95;;
11098;SDS011;12223;42.650;23.364;2022-08-21T03:29:01;122.90;;;117.28;;
11098;SDS011;12223;42.650;23.364;2022-08-21T03:31:28;155.93;;;148.77;;
11098;SDS011;12223;42.650;23.364;2022-08-21T03:33:56;161.18;;;153.70;;
11098;SDS011;12223;42.650;23.364;2022-08-21T03:36:23;118.53;;;112.93;;
11098;SDS011;12223;42.650;23.364;2022-08-21T03:38:52;132.50;;;125.80;;
11098;SDS011;12223;42.650;23.364;2022-08-21T03:41:19;118.85;;;113.53;;
11098;SDS011;12223;42.650;23.364;2022-08-21T03:43:45;165.63;;;158.48;;
11098;SDS011;12223;42.650;23.364;2022-08-21T03:46:12;94.40;;;89.70;;
11098;SDS011;12223;42.650;23.364;2022-08-21T03:48:39;54.30;;;51.50;;
11098;SDS011;12223;42.650;23.364;2022-08-21T03:51:06;25.25;;;23.65;;
11098;SDS011;12223;42.650;23.364;2022-08-21T03:53:33;48.15;;;45.65;;
11098;SDS011;12223;42.650;23.364;2022-08-21T03:56:03;75.15;;;71.57;;
11098;SDS011;12223;42.650;23.364;2022-08-21T03:58:30;52.78;;;49.70;;
11098;SDS011;12223;42.650;23.364;2022-08-21T04:00:58;32.28;;;30.48;;
11098;SDS011;12223;42.650;23.364;2022-08-21T04:03:26;36.28;;;34.20;;
11098;SDS011;12223;42.650;23.364;2022-08-21T04:05:53;32.45;;;30.33;;
11098;SDS011;12223;42.650;23.364;2022-08-21T04:08:20;22.77;;;20.80;;
11098;SDS011;12223;42.650;23.364;2022-08-21T04:10:48;27.33;;;25.27;;
11098;SDS011;12223;42.650;23.364;2022-08-21T04:13:19;26.30;;;24.33;;
11098;SDS011;12223;42.650;23.364;2022-08-21T04:15:46;26.40;;;24.30;;
11098;SDS011;12223;42.650;23.364;2022-08-21T04:18:14;23.90;;;21.77;;
11098;SDS011;12223;42.650;23.364;2022-08-21T04:20:41;19.27;;;17.67;;
11098;SDS011;12223;42.650;23.364;2022-08-21T04:23:09;35.13;;;32.63;;
11098;SDS011;12223;42.650;23.364;2022-08-21T04:25:36;49.47;;;46.53;;
11098;SDS011;12223;42.650;23.364;2022-08-21T04:28:03;50.40;;;47.67;;
11098;SDS011;12223;42.650;23.364;2022-08-21T04:30:32;75.15;;;71.40;;
11098;SDS011;12223;42.650;23.364;2022-08-21T04:32:58;69.60;;;65.90;;
11098;SDS011;12223;42.650;23.364;2022-08-21T04:35:26;60.45;;;56.88;;
11098;SDS011;12223;42.650;23.364;2022-08-21T04:37:53;72.93;;;69.40;;
11098;SDS011;12223;42.650;23.364;2022-08-21T04:40:21;74.68;;;70.35;;
11098;SDS011;12223;42.650;23.364;2022-08-21T04:42:49;42.28;;;39.88;;
11098;SDS011;12223;42.650;23.364;2022-08-21T04:45:18;22.40;;;20.33;;
11098;SDS011;12223;42.650;23.364;2022-08-21T04:47:49;34.08;;;31.67;;
11098;SDS011;12223;42.650;23.364;2022-08-21T04:50:17;52.15;;;49.17;;
11098;SDS011;12223;42.650;23.364;2022-08-21T04:52:44;63.85;;;60.38;;
11098;SDS011;12223;42.650;23.364;2022-08-21T04:55:12;72.50;;;69.20;;
11098;SDS011;12223;42.650;23.364;2022-08-21T04:57:39;59.53;;;56.58;;
11098;SDS011;12223;42.650;23.364;2022-08-21T05:00:07;216.38;;;206.20;;
11098;SDS011;12223;42.650;23.364;2022-08-21T05:02:35;57.42;;;54.85;;
11098;SDS011;12223;42.650;23.364;2022-08-21T05:05:05;42.85;;;40.75;;
11098;SDS011;12223;42.650;23.364;2022-08-21T05:07:32;44.33;;;42.03;;
11098;SDS011;12223;42.650;23.364;2022-08-21T05:10:00;14.55;;;13.20;;
11098;SDS011;12223;42.650;23.364;2022-08-21T05:12:27;10.43;;;8.73;;
11098;SDS011;12223;42.650;23.364;2022-08-21T05:14:54;10.90;;;9.80;;
11098;SDS011;12223;42.650;23.364;2022-08-21T05:17:21;12.38;;;11.18;;
11098;SDS011;12223;42.650;23.364;2022-08-21T05:19:48;16.67;;;9.18;;
11098;SDS011;12223;42.650;23.364;2022-08-21T05:22:20;9.85;;;8.95;;
11098;SDS011;12223;42.650;23.364;2022-08-21T05:24:46;9.77;;;8.82;;
11098;SDS011;12223;42.650;23.364;2022-08-21T05:27:13;8.30;;;7.60;;
11098;SDS011;12223;42.650;23.364;2022-08-21T05:29:40;11.57;;;8.20;;
11098;SDS011;12223;42.650;23.364;2022-08-21T05:32:08;9.68;;;8.63;;
11098;SDS011;12223;42.650;23.364;2022-08-21T05:34:35;21.20;;;20.02;;
11098;SDS011;12223;42.650;23.364;2022-08-21T05:37:03;27.50;;;25.83;;
11098;SDS011;12223;42.650;23.364;2022-08-21T05:39:31;12.68;;;11.23;;
11098;SDS011;12223;42.650;23.364;2022-08-21T05:41:58;14.43;;;13.27;;
11098;SDS011;12223;42.650;23.364;2022-08-21T05:44:25;11.70;;;10.65;;
11098;SDS011;12223;42.650;23.364;2022-08-21T05:46:52;17.67;;;16.10;;
11098;SDS011;12223;42.650;23.364;2022-08-21T05:49:19;12.48;;;11.07;;
11098;SDS011;12223;42.650;23.364;2022-08-21T05:51:45;11.02;;;9.38;;
11098;SDS011;12223;42.650;23.364;2022-08-21T05:54:12;11.10;;;10.05;;
11098;SDS011;12223;42.650;23.364;2022-08-21T05:56:40;11.90;;;10.93;;
11098;SDS011;12223;42.650;23.364;2022-08-21T05:59:09;12.48;;;10.70;;
11098;SDS011;12223;42.650;23.364;2022-08-21T06:01:38;15.45;;;10.93;;
11098;SDS011;12223;42.650;23.364;2022-08-21T06:04:05;11.20;;;10.25;;
11098;SDS011;12223;42.650;23.364;2022-08-21T06:06:33;34.33;;;32.13;;
11098;SDS011;12223;42.650;23.364;2022-08-21T06:09:00;13.45;;;12.05;;
11098;SDS011;12223;42.650;23.364;2022-08-21T06:11:27;13.63;;;12.30;;
11098;SDS011;12223;42.650;23.364;2022-08-21T06:13:55;16.70;;;15.30;;
11098;SDS011;12223;42.650;23.364;2022-08-21T06:16:24;14.02;;;12.25;;
11098;SDS011;12223;42.650;23.364;2022-08-21T06:18:53;22.05;;;20.40;;
11098;SDS011;12223;42.650;23.364;2022-08-21T06:21:20;12.98;;;11.70;;
11098;SDS011;12223;42.650;23.364;2022-08-21T06:23:47;14.30;;;13.10;;
11098;SDS011;12223;42.650;23.364;2022-08-21T06:26:14;13.55;;;12.25;;
11098;SDS011;12223;42.650;23.364;2022-08-21T06:28:41;15.77;;;14.50;;
11098;SDS011;12223;42.650;23.364;2022-08-21T06:31:14;39.22;;;36.67;;
11098;SDS011;12223;42.650;23.364;2022-08-21T06:33:42;45.45;;;42.70;;
11098;SDS011;12223;42.650;23.364;2022-08-21T06:36:09;15.13;;;13.57;;
11098;SDS011;12223;42.650;23.364;2022-08-21T06:38:36;19.45;;;17.95;;
11098;SDS011;12223;42.650;23.364;2022-08-21T06:41:03;136.68;;;130.70;;
11098;SDS011;12223;42.650;23.364;2022-08-21T06:43:30;16.20;;;14.93;;
11098;SDS011;12223;42.650;23.364;2022-08-21T06:45:57;20.38;;;18.52;;
11098;SDS011;12223;42.650;23.364;2022-08-21T06:48:25;29.08;;;26.83;;
11098;SDS011;12223;42.650;23.364;2022-08-21T06:50:53;34.13;;;31.75;;
11098;SDS011;12223;42.650;23.364;2022-08-21T06:56:42;22.77;;;20.55;;
11098;SDS011;12223;42.650;23.364;2022-08-21T06:59:09;14.77;;;12.07;;
11098;SDS011;12223;42.650;23.364;2022-08-21T07:01:36;14.77;;;13.38;;
11098;SDS011;12223;42.650;23.364;2022-08-21T07:04:04;17.40;;;15.93;;
11098;SDS011;12223;42.650;23.364;2022-08-21T07:06:31;15.18;;;13.70;;
11098;SDS011;12223;42.650;23.364;2022-08-21T07:08:57;13.50;;;12.18;;
11098;SDS011;12223;42.650;23.364;2022-08-21T07:11:26;17.15;;;15.55;;
11098;SDS011;12223;42.650;23.364;2022-08-21T07:13:53;17.88;;;16.25;;
11098;SDS011;12223;42.650;23.364;2022-08-21T07:16:21;14.23;;;12.80;;
11098;SDS011;12223;42.650;23.364;2022-08-21T07:18:48;17.88;;;16.15;;
11098;SDS011;12223;42.650;23.364;2022-08-21T07:21:17;23.95;;;22.10;;
11098;SDS011;12223;42.650;23.364;2022-08-21T07:23:44;12.52;;;11.20;;
11098;SDS011;12223;42.650;23.364;2022-08-21T07:26:13;18.77;;;16.23;;
11098;SDS011;12223;42.650;23.364;2022-08-21T07:28:41;16.83;;;12.40;;
11098;SDS011;12223;42.650;23.364;2022-08-21T07:31:08;14.98;;;13.45;;
11098;SDS011;12223;42.650;23.364;2022-08-21T07:33:39;13.30;;;11.98;;
11098;SDS011;12223;42.650;23.364;2022-08-21T07:36:06;14.48;;;12.93;;
11098;SDS011;12223;42.650;23.364;2022-08-21T07:38:34;15.93;;;14.35;;
11098;SDS011;12223;42.650;23.364;2022-08-21T07:41:02;19.90;;;18.27;;
11098;SDS011;12223;42.650;23.364;2022-08-21T07:43:33;16.15;;;14.68;;
11098;SDS011;12223;42.650;23.364;2022-08-21T07:46:00;12.93;;;11.45;;
11098;SDS011;12223;42.650;23.364;2022-08-21T07:48:26;14.00;;;12.57;;
11098;SDS011;12223;42.650;23.364;2022-08-21T07:50:53;14.38;;;12.85;;
11098;SDS011;12223;42.650;23.364;2022-08-21T07:53:20;16.98;;;15.55;;
11098;SDS011;12223;42.650;23.364;2022-08-21T07:55:49;19.33;;;17.48;;
11098;SDS011;12223;42.650;23.364;2022-08-21T07:58:15;15.77;;;14.18;;
11098;SDS011;12223;42.650;23.364;2022-08-21T08:00:42;14.18;;;12.90;;
11098;SDS011;12223;42.650;23.364;2022-08-21T08:03:09;17.65;;;15.52;;
11098;SDS011;12223;42.650;23.364;2022-08-21T08:05:36;71.65;;;68.30;;
11098;SDS011;12223;42.650;23.364;2022-08-21T08:08:04;16.23;;;13.48;;
11098;SDS011;12223;42.650;23.364;2022-08-21T08:10:31;48.10;;;45.35;;
11098;SDS011;12223;42.650;23.364;2022-08-21T08:12:59;29.58;;;27.48;;
11098;SDS011;12223;42.650;23.364;2022-08-21T08:15:27;29.70;;;27.52;;
11098;SDS011;12223;42.650;23.364;2022-08-21T08:17:55;20.23;;;18.48;;
11098;SDS011;12223;42.650;23.364;2022-08-21T08:20:22;22.15;;;19.80;;
11098;SDS011;12223;42.650;23.364;2022-08-21T08:22:51;29.05;;;26.65;;
11098;SDS011;12223;42.650;23.364;2022-08-21T08:25:19;32.78;;;29.85;;
11098;SDS011;12223;42.650;23.364;2022-08-21T08:27:47;59.13;;;56.05;;
11098;SDS011;12223;42.650;23.364;2022-08-21T08:30:16;26.40;;;24.23;;
11098;SDS011;12223;42.650;23.364;2022-08-21T08:32:45;31.30;;;29.00;;
11098;SDS011;12223;42.650;23.364;2022-08-21T08:35:12;19.25;;;17.58;;
11098;SDS011;12223;42.650;23.364;2022-08-21T08:37:40;18.52;;;13.55;;
11098;SDS011;12223;42.650;23.364;2022-08-21T08:40:10;24.77;;;22.88;;
11098;SDS011;12223;42.650;23.364;2022-08-21T08:42:39;49.78;;;46.50;;
11098;SDS011;12223;42.650;23.364;2022-08-21T08:45:08;20.42;;;18.48;;
11098;SDS011;12223;42.650;23.364;2022-08-21T08:47:40;23.40;;;19.20;;
11098;SDS011;12223;42.650;23.364;2022-08-21T08:50:12;19.17;;;13.52;;
11098;SDS011;12223;42.650;23.364;2022-08-21T08:52:47;15.43;;;13.85;;
11098;SDS011;12223;42.650;23.364;2022-08-21T08:55:18;18.90;;;16.50;;
11098;SDS011;12223;42.650;23.364;2022-08-21T08:57:49;13.25;;;11.35;;
11098;SDS011;12223;42.650;23.364;2022-08-21T09:00:19;14.63;;;11.65;;
11098;SDS011;12223;42.650;23.364;2022-08-21T09:02:49;14.73;;;12.35;;
11098;SDS011;12223;42.650;23.364;2022-08-21T09:05:20;17.67;;;15.98;;
11098;SDS011;12223;42.650;23.364;2022-08-21T09:07:53;17.48;;;13.68;;
11098;SDS011;12223;42.650;23.364;2022-08-21T09:10:34;21.70;;;19.77;;
11098;SDS011;12223;42.650;23.364;2022-08-21T09:13:14;30.17;;;28.17;;
11098;SDS011;12223;42.650;23.364;2022-08-21T09:15:50;19.55;;;17.40;;
11098;SDS011;12223;42.650;23.364;2022-08-21T09:18:29;18.27;;;15.07;;
11098;SDS011;12223;42.650;23.364;2022-08-21T09:21:15;16.15;;;14.65;;
11098;SDS011;12223;42.650;23.364;2022-08-21T09:23:53;28.90;;;26.90;;
11098;SDS011;12223;42.650;23.364;2022-08-21T09:26:27;21.48;;;19.23;;
11098;SDS011;12223;42.650;23.364;2022-08-21T09:28:59;32.90;;;30.80;;
11098;SDS011;12223;42.650;23.364;2022-08-21T09:31:28;20.48;;;18.70;;
11098;SDS011;12223;42.650;23.364;2022-08-21T09:33:59;30.73;;;28.42;;
11098;SDS011;12223;42.650;23.364;2022-08-21T09:36:30;19.00;;;16.85;;
11098;SDS011;12223;42.650;23.364;2022-08-21T09:39:00;15.88;;;14.13;;
11098;SDS011;12223;42.650;23.364;2022-08-21T09:41:28;19.70;;;18.08;;
11098;SDS011;12223;42.650;23.364;2022-08-21T09:43:57;16.30;;;13.82;;
11098;SDS011;12223;42.650;23.364;2022-08-21T09:46:24;15.10;;;13.70;;
11098;SDS011;12223;42.650;23.364;2022-08-21T09:48:53;25.25;;;23.05;;
11098;SDS011;12223;42.650;23.364;2022-08-21T09:51:23;38.58;;;36.15;;
11098;SDS011;12223;42.650;23.364;2022-08-21T09:53:53;45.83;;;42.95;;
11098;SDS011;12223;42.650;23.364;2022-08-21T09:56:26;29.88;;;27.35;;
11098;SDS011;12223;42.650;23.364;2022-08-21T09:59:16;28.15;;;26.10;;
11098;SDS011;12223;42.650;23.364;2022-08-21T10:01:46;15.98;;;13.02;;
11098;SDS011;12223;42.650;23.364;2022-08-21T10:04:15;16.00;;;12.77;;
11098;SDS011;12223;42.650;23.364;2022-08-21T10:06:48;19.30;;;13.27;;
11098;SDS011;12223;42.650;23.364;2022-08-21T10:09:17;21.33;;;19.42;;
11098;SDS011;12223;42.650;23.364;2022-08-21T10:11:47;12.48;;;10.10;;
11098;SDS011;12223;42.650;23.364;2022-08-21T10:14:21;14.48;;;12.98;;
11098;SDS011;12223;42.650;23.364;2022-08-21T10:16:59;15.75;;;14.43;;
11098;SDS011;12223;42.650;23.364;2022-08-21T10:19:35;49.42;;;46.67;;
11098;SDS011;12223;42.650;23.364;2022-08-21T10:22:13;13.80;;;11.57;;
11098;SDS011;12223;42.650;23.364;2022-08-21T10:24:52;13.35;;;11.10;;
11098;SDS011;12223;42.650;23.364;2022-08-21T10:27:30;20.25;;;18.70;;
11098;SDS011;12223;42.650;23.364;2022-08-21T10:30:05;34.55;;;32.65;;
11098;SDS011;12223;42.650;23.364;2022-08-21T10:32:54;14.30;;;13.00;;
11098;SDS011;12223;42.650;23.364;2022-08-21T10:35:29;54.05;;;51.25;;
11098;SDS011;12223;42.650;23.364;2022-08-21T10:38:15;30.40;;;28.45;;
11098;SDS011;12223;42.650;23.364;2022-08-21T10:41:03;17.85;;;15.85;;
11098;SDS011;12223;42.650;23.364;2022-08-21T10:43:50;57.15;;;54.33;;
11098;SDS011;12223;42.650;23.364;2022-08-21T10:46:26;13.52;;;12.32;;
11098;SDS011;12223;42.650;23.364;2022-08-21T10:49:06;16.92;;;15.32;;
11098;SDS011;12223;42.650;23.364;2022-08-21T10:51:45;30.17;;;27.65;;
11098;SDS011;12223;42.650;23.364;2022-08-21T10:54:23;31.67;;;29.65;;
11098;SDS011;12223;42.650;23.364;2022-08-21T10:56:59;40.08;;;37.78;;
11098;SDS011;12223;42.650;23.364;2022-08-21T10:59:30;17.75;;;16.30;;
11098;SDS011;12223;42.650;23.364;2022-08-21T11:02:04;13.80;;;10.55;;
11098;SDS011;12223;42.650;23.364;2022-08-21T11:04:42;15.45;;;13.95;;
11098;SDS011;12223;42.650;23.364;2022-08-21T11:07:18;14.90;;;13.50;;
11098;SDS011;12223;42.650;23.364;2022-08-21T11:09:48;16.67;;;12.63;;
11098;SDS011;12223;42.650;23.364;2022-08-21T11:12:19;45.35;;;42.55;;
11098;SDS011;12223;42.650;23.364;2022-08-21T11:14:51;15.23;;;13.82;;
11098;SDS011;12223;42.650;23.364;2022-08-21T11:17:24;13.35;;;10.07;;
11098;SDS011;12223;42.650;23.364;2022-08-21T11:19:59;12.30;;;11.20;;
11098;SDS011;12223;42.650;23.364;2022-08-21T11:22:31;31.95;;;30.13;;
11098;SDS011;12223;42.650;23.364;2022-08-21T11:25:06;13.98;;;10.75;;
11098;SDS011;12223;42.650;23.364;2022-08-21T11:27:38;13.65;;;12.60;;
11098;SDS011;12223;42.650;23.364;2022-08-21T11:30:11;16.30;;;14.68;;
11098;SDS011;12223;42.650;23.364;2022-08-21T11:32:49;13.10;;;9.73;;
11098;SDS011;12223;42.650;23.364;2022-08-21T11:35:33;13.23;;;11.90;;
11098;SDS011;12223;42.650;23.364;2022-08-21T11:38:10;12.10;;;10.52;;
11098;SDS011;12223;42.650;23.364;2022-08-21T11:40:52;13.00;;;11.05;;
11098;SDS011;12223;42.650;23.364;2022-08-21T11:43:32;15.05;;;12.00;;
11098;SDS011;12223;42.650;23.364;2022-08-21T11:46:08;12.18;;;11.02;;
11098;SDS011;12223;42.650;23.364;2022-08-21T11:48:46;13.38;;;11.88;;
11098;SDS011;12223;42.650;23.364;2022-08-21T11:51:25;16.05;;;14.57;;
11098;SDS011;12223;42.650;23.364;2022-08-21T11:53:59;21.42;;;19.77;;
11098;SDS011;12223;42.650;23.364;2022-08-21T11:56:35;10.93;;;9.95;;
11098;SDS011;12223;42.650;23.364;2022-08-21T11:59:08;13.02;;;11.57;;
11098;SDS011;12223;42.650;23.364;2022-08-21T12:01:39;13.82;;;12.52;;
11098;SDS011;12223;42.650;23.364;2022-08-21T12:04:15;17.25;;;16.05;;
11098;SDS011;12223;42.650;23.364;2022-08-21T12:06:47;14.07;;;10.70;;
11098;SDS011;12223;42.650;23.364;2022-08-21T12:09:28;14.45;;;9.63;;
11098;SDS011;12223;42.650;23.364;2022-08-21T12:12:03;15.38;;;13.65;;
11098;SDS011;12223;42.650;23.364;2022-08-21T12:14:39;12.43;;;11.40;;
11098;SDS011;12223;42.650;23.364;2022-08-21T12:17:08;15.75;;;14.45;;
11098;SDS011;12223;42.650;23.364;2022-08-21T12:19:44;10.95;;;9.93;;
11098;SDS011;12223;42.650;23.364;2022-08-21T12:22:11;12.05;;;11.00;;
11098;SDS011;12223;42.650;23.364;2022-08-21T12:24:41;14.07;;;12.60;;
11098;SDS011;12223;42.650;23.364;2022-08-21T12:27:21;12.20;;;10.98;;
11098;SDS011;12223;42.650;23.364;2022-08-21T12:29:52;13.57;;;12.40;;
11098;SDS011;12223;42.650;23.364;2022-08-21T12:32:23;15.13;;;13.63;;
11098;SDS011;12223;42.650;23.364;2022-08-21T12:34:53;13.05;;;11.95;;
11098;SDS011;12223;42.650;23.364;2022-08-21T12:37:25;14.95;;;13.45;;
11098;SDS011;12223;42.650;23.364;2022-08-21T12:40:00;12.90;;;10.68;;
11098;SDS011;12223;42.650;23.364;2022-08-21T12:42:38;16.80;;;12.10;;
11098;SDS011;12223;42.650;23.364;2022-08-21T12:45:11;16.23;;;10.90;;
11098;SDS011;12223;42.650;23.364;2022-08-21T12:47:45;12.60;;;11.27;;
11098;SDS011;12223;42.650;23.364;2022-08-21T12:50:19;11.93;;;10.82;;
11098;SDS011;12223;42.650;23.364;2022-08-21T12:52:48;11.50;;;10.43;;
11098;SDS011;12223;42.650;23.364;2022-08-21T12:55:25;19.10;;;17.70;;
11098;SDS011;12223;42.650;23.364;2022-08-21T12:57:56;29.65;;;27.90;;
11098;SDS011;12223;42.650;23.364;2022-08-21T13:00:24;16.42;;;14.95;;
11098;SDS011;12223;42.650;23.364;2022-08-21T13:02:52;16.02;;;14.70;;
11098;SDS011;12223;42.650;23.364;2022-08-21T13:05:23;32.78;;;30.45;;
11098;SDS011;12223;42.650;23.364;2022-08-21T13:07:55;10.27;;;9.38;;
11098;SDS011;12223;42.650;23.364;2022-08-21T13:13:49;31.02;;;29.17;;
11098;SDS011;12223;42.650;23.364;2022-08-21T13:16:20;33.38;;;31.58;;
11098;SDS011;12223;42.650;23.364;2022-08-21T13:18:53;14.90;;;13.60;;
11098;SDS011;12223;42.650;23.364;2022-08-21T13:21:27;15.38;;;14.10;;
11098;SDS011;12223;42.650;23.364;2022-08-21T13:24:06;14.07;;;12.68;;
11098;SDS011;12223;42.650;23.364;2022-08-21T13:26:36;10.88;;;9.88;;
11098;SDS011;12223;42.650;23.364;2022-08-21T13:29:07;12.27;;;10.98;;
11098;SDS011;12223;42.650;23.364;2022-08-21T13:31:37;13.40;;;12.10;;
11098;SDS011;12223;42.650;23.364;2022-08-21T13:34:07;25.92;;;24.08;;
11098;SDS011;12223;42.650;23.364;2022-08-21T13:36:37;68.82;;;65.32;;
11098;SDS011;12223;42.650;23.364;2022-08-21T13:39:07;20.52;;;18.83;;
11098;SDS011;12223;42.650;23.364;2022-08-21T13:41:37;20.77;;;19.38;;
11098;SDS011;12223;42.650;23.364;2022-08-21T13:47:02;16.83;;;15.48;;
11098;SDS011;12223;42.650;23.364;2022-08-21T13:49:32;33.42;;;31.42;;
11098;SDS011;12223;42.650;23.364;2022-08-21T13:52:00;15.70;;;13.75;;
11098;SDS011;12223;42.650;23.364;2022-08-21T13:54:29;20.60;;;19.23;;
11098;SDS011;12223;42.650;23.364;2022-08-21T13:57:00;17.63;;;16.30;;
11098;SDS011;12223;42.650;23.364;2022-08-21T13:59:28;15.75;;;14.55;;
11098;SDS011;12223;42.650;23.364;2022-08-21T14:01:59;36.75;;;34.80;;
11098;SDS011;12223;42.650;23.364;2022-08-21T14:04:35;15.75;;;14.40;;
11098;SDS011;12223;42.650;23.364;2022-08-21T14:07:14;20.67;;;18.77;;
11098;SDS011;12223;42.650;23.364;2022-08-21T14:09:44;27.40;;;25.33;;
11098;SDS011;12223;42.650;23.364;2022-08-21T14:12:14;24.05;;;22.50;;
11098;SDS011;12223;42.650;23.364;2022-08-21T14:14:43;37.30;;;35.08;;
11098;SDS011;12223;42.650;23.364;2022-08-21T14:17:13;29.35;;;27.75;;
11098;SDS011;12223;42.650;23.364;2022-08-21T14:19:52;17.75;;;16.48;;
11098;SDS011;12223;42.650;23.364;2022-08-21T14:22:23;24.92;;;23.17;;
11098;SDS011;12223;42.650;23.364;2022-08-21T14:24:58;42.38;;;39.97;;
11098;SDS011;12223;42.650;23.364;2022-08-21T14:27:28;21.30;;;19.85;;
11098;SDS011;12223;42.650;23.364;2022-08-21T14:30:00;16.83;;;15.52;;
11098;SDS011;12223;42.650;23.364;2022-08-21T14:32:39;32.13;;;29.98;;
11098;SDS011;12223;42.650;23.364;2022-08-21T14:35:07;15.50;;;13.30;;